sensor_id;sensor_type;location;lat;lon;timestamp;pressure;altitude;pressure_sealevel;temperature;humidity
7050;BME280;22263;52.260;10.548;2023-11-21T00:02:01;99889.44;;;9.67;100.00
7050;BME280;22263;52.260;10.548;2023-11-21T00:04:31;99891.03;;;9.75;100.00
7050;BME280;22263;52.260;10.548;2023-11-21T00:07:01;99890.66;;;9.76;100.00
7050;BME280;22263;52.260;10.548;2023-11-21T00:09:33;99890.63;;;9.69;100.00
7050;BME280;22263;52.260;10.548;2023-11-21T00:12:06;99892.63;;;9.76;100.00
7050;BME280;22263;52.260;10.548;2023-11-21T00:14:37;99896.03;;;9.48;100.00
7050;BME280;22263;52.260;10.548;2023-11-21T00:17:06;99901.47;;;9.34;100.00
7050;BME280;22263;52.260;10.548;2023-11-21T00:19:36;99897.94;;;9.40;100.00
7050;BME280;22263;52.260;10.548;2023-11-21T00:22:06;99900.34;;;9.45;100.00
7050;BME280;22263;52.260;10.548;2023-11-21T00:24:36;99898.72;;;9.34;100.00
7050;BME280;22263;52.260;10.548;2023-11-21T00:27:08;99896.38;;;9.39;100.00
7050;BME280;22263;52.260;10.548;2023-11-21T00:29:38;99899.16;;;9.43;100.00
7050;BME280;22263;52.260;10.548;2023-11-21T00:32:08;99904.97;;;9.31;100.00
7050;BME280;22263;52.260;10.548;2023-11-21T00:34:37;99897.69;;;9.63;100.00
7050;BME280;22263;52.260;10.548;2023-11-21T00:37:07;99910.13;;;9.32;100.00
7050;BME280;22263;52.260;10.548;2023-11-21T00:39:37;99908.97;;;9.37;100.00
7050;BME280;22263;52.260;10.548;2023-11-21T00:42:10;99906.56;;;9.32;100.00
7050;BME280;22263;52.260;10.548;2023-11-21T00:44:40;99916.06;;;9.38;100.00
7050;BME280;22263;52.260;10.548;2023-11-21T00:47:09;99914.84;;;9.28;100.00
7050;BME280;22263;52.260;10.548;2023-11-21T00:49:39;99921.19;;;9.36;100.00
7050;BME280;22263;52.260;10.548;2023-11-21T00:52:11;99917.25;;;9.40;100.00
7050;BME280;22263;52.260;10.548;2023-11-21T00:54:41;99926.03;;;9.49;100.00
7050;BME280;22263;52.260;10.548;2023-11-21T00:57:14;99918.84;;;9.38;100.00
7050;BME280;22263;52.260;10.548;2023-11-21T00:59:44;99936.59;;;9.40;100.00
7050;BME280;22263;52.260;10.548;2023-11-21T01:02:13;99940.22;;;9.51;100.00
7050;BME280;22263;52.260;10.548;2023-11-21T01:04:43;99933.81;;;9.40;100.00
7050;BME280;22263;52.260;10.548;2023-11-21T01:07:14;99938.63;;;9.50;100.00
7050;BME280;22263;52.260;10.548;2023-11-21T01:09:47;99933.50;;;9.49;100.00
7050;BME280;22263;52.260;10.548;2023-11-21T01:12:20;99929.16;;;9.51;100.00
7050;BME280;22263;52.260;10.548;2023-11-21T01:14:52;99941.66;;;9.31;100.00
7050;BME280;22263;52.260;10.548;2023-11-21T01:17:22;99933.78;;;9.33;100.00
7050;BME280;22263;52.260;10.548;2023-11-21T01:19:52;99944.44;;;9.35;100.00
7050;BME280;22263;52.260;10.548;2023-11-21T01:22:23;99937.31;;;9.30;100.00
7050;BME280;22263;52.260;10.548;2023-11-21T01:24:53;99935.53;;;9.59;100.00
7050;BME280;22263;52.260;10.548;2023-11-21T01:27:26;99947.63;;;9.40;100.00
7050;BME280;22263;52.260;10.548;2023-11-21T01:29:55;99942.44;;;9.32;100.00
7050;BME280;22263;52.260;10.548;2023-11-21T01:32:25;99940.91;;;9.34;100.00
7050;BME280;22263;52.260;10.548;2023-11-21T01:34:55;99936.88;;;9.25;100.00
7050;BME280;22263;52.260;10.548;2023-11-21T01:37:25;99932.66;;;9.45;100.00
7050;BME280;22263;52.260;10.548;2023-11-21T01:39:57;99938.19;;;9.45;100.00
7050;BME280;22263;52.260;10.548;2023-11-21T01:42:30;99934.59;;;9.37;100.00
7050;BME280;22263;52.260;10.548;2023-11-21T01:45:01;99941.34;;;9.43;100.00
7050;BME280;22263;52.260;10.548;2023-11-21T01:47:33;99952.41;;;9.47;100.00
7050;BME280;22263;52.260;10.548;2023-11-21T01:50:03;99946.59;;;9.62;100.00
7050;BME280;22263;52.260;10.548;2023-11-21T01:52:36;99950.16;;;9.63;100.00
7050;BME280;22263;52.260;10.548;2023-11-21T01:55:07;99958.03;;;9.64;100.00
7050;BME280;22263;52.260;10.548;2023-11-21T01:57:45;99958.75;;;9.54;100.00
7050;BME280;22263;52.260;10.548;2023-11-21T02:00:16;99958.03;;;9.64;100.00
7050;BME280;22263;52.260;10.548;2023-11-21T02:02:47;99967.16;;;9.69;100.00
7050;BME280;22263;52.260;10.548;2023-11-21T02:05:18;99964.78;;;9.71;100.00
7050;BME280;22263;52.260;10.548;2023-11-21T02:07:48;99967.59;;;9.81;100.00
7050;BME280;22263;52.260;10.548;2023-11-21T02:10:19;99967.19;;;9.79;100.00
7050;BME280;22263;52.260;10.548;2023-11-21T02:12:54;99978.13;;;9.61;100.00
7050;BME280;22263;52.260;10.548;2023-11-21T02:15:25;99977.06;;;9.77;100.00
7050;BME280;22263;52.260;10.548;2023-11-21T02:17:56;99968.84;;;9.91;100.00
7050;BME280;22263;52.260;10.548;2023-11-21T02:20:27;99966.53;;;10.03;100.00
7050;BME280;22263;52.260;10.548;2023-11-21T02:22:59;99965.06;;;9.55;100.00
7050;BME280;22263;52.260;10.548;2023-11-21T02:25:30;99969.13;;;9.68;100.00
7050;BME280;22263;52.260;10.548;2023-11-21T02:28:02;99976.19;;;9.69;100.00
7050;BME280;22263;52.260;10.548;2023-11-21T02:30:35;99977.84;;;9.77;100.00
7050;BME280;22263;52.260;10.548;2023-11-21T02:33:05;99971.91;;;9.72;100.00
7050;BME280;22263;52.260;10.548;2023-11-21T02:35:35;99980.38;;;9.45;100.00
7050;BME280;22263;52.260;10.548;2023-11-21T02:38:08;99980.56;;;9.70;100.00
7050;BME280;22263;52.260;10.548;2023-11-21T02:40:38;99984.81;;;9.57;100.00
7050;BME280;22263;52.260;10.548;2023-11-21T02:43:08;99980.38;;;9.45;100.00
7050;BME280;22263;52.260;10.548;2023-11-21T02:45:38;99981.53;;;9.41;100.00
7050;BME280;22263;52.260;10.548;2023-11-21T02:48:08;99982.84;;;9.54;100.00
7050;BME280;22263;52.260;10.548;2023-11-21T02:50:38;99982.53;;;9.70;100.00
7050;BME280;22263;52.260;10.548;2023-11-21T02:53:12;99976.50;;;9.53;100.00
7050;BME280;22263;52.260;10.548;2023-11-21T02:55:42;99983.66;;;9.58;100.00
7050;BME280;22263;52.260;10.548;2023-11-21T02:58:12;99981.41;;;9.78;100.00
7050;BME280;22263;52.260;10.548;2023-11-21T03:00:42;99985.28;;;9.70;100.00
7050;BME280;22263;52.260;10.548;2023-11-21T03:03:13;99985.16;;;9.52;100.00
7050;BME280;22263;52.260;10.548;2023-11-21T03:05:42;99991.88;;;9.54;100.00
7050;BME280;22263;52.260;10.548;2023-11-21T03:08:15;99999.84;;;9.63;100.00
7050;BME280;22263;52.260;10.548;2023-11-21T03:10:45;99997.03;;;9.56;100.00
7050;BME280;22263;52.260;10.548;2023-11-21T03:13:16;100002.50;;;9.49;100.00
7050;BME280;22263;52.260;10.548;2023-11-21T03:15:45;99999.94;;;9.77;100.00
7050;BME280;22263;52.260;10.548;2023-11-21T03:18:15;100002.00;;;9.91;100.00
7050;BME280;22263;52.260;10.548;2023-11-21T03:20:45;100003.50;;;9.78;100.00
7050;BME280;22263;52.260;10.548;2023-11-21T03:23:18;100007.09;;;9.89;100.00
7050;BME280;22263;52.260;10.548;2023-11-21T03:25:48;100003.59;;;9.95;100.00
7050;BME280;22263;52.260;10.548;2023-11-21T03:28:17;100003.25;;;10.04;100.00
7050;BME280;22263;52.260;10.548;2023-11-21T03:30:47;100002.78;;;9.91;100.00
7050;BME280;22263;52.260;10.548;2023-11-21T03:33:17;100007.94;;;9.96;100.00
7050;BME280;22263;52.260;10.548;2023-11-21T03:35:47;100005.84;;;9.76;100.00
7050;BME280;22263;52.260;10.548;2023-11-21T03:38:21;100026.03;;;9.87;100.00
7050;BME280;22263;52.260;10.548;2023-11-21T03:40:51;100022.56;;;10.00;100.00
7050;BME280;22263;52.260;10.548;2023-11-21T03:43:20;100025.69;;;9.95;100.00
7050;BME280;22263;52.260;10.548;2023-11-21T03:45:51;100019.44;;;10.05;100.00
7050;BME280;22263;52.260;10.548;2023-11-21T03:48:21;100027.22;;;9.89;100.00
7050;BME280;22263;52.260;10.548;2023-11-21T03:50:51;100033.44;;;9.76;100.00
7050;BME280;22263;52.260;10.548;2023-11-21T03:53:23;100041.91;;;10.00;100.00
7050;BME280;22263;52.260;10.548;2023-11-21T03:55:53;100039.00;;;9.79;100.00
7050;BME280;22263;52.260;10.548;2023-11-21T03:58:23;100042.16;;;9.78;100.00
7050;BME280;22263;52.260;10.548;2023-11-21T04:00:53;100043.78;;;9.89;100.00
7050;BME280;22263;52.260;10.548;2023-11-21T04:03:22;100047.69;;;9.78;100.00
7050;BME280;22263;52.260;10.548;2023-11-21T04:05:52;100057.84;;;9.67;100.00
7050;BME280;22263;52.260;10.548;2023-11-21T04:08:25;100050.81;;;9.80;100.00
7050;BME280;22263;52.260;10.548;2023-11-21T04:10:55;100050.13;;;9.90;100.00
7050;BME280;22263;52.260;10.548;2023-11-21T04:13:24;100050.34;;;9.63;100.00
7050;BME280;22263;52.260;10.548;2023-11-21T04:15:54;100049.50;;;9.59;100.00
7050;BME280;22263;52.260;10.548;2023-11-21T04:18:25;100051.84;;;9.54;100.00
7050;BME280;22263;52.260;10.548;2023-11-21T04:20:55;100052.75;;;9.69;100.00
7050;BME280;22263;52.260;10.548;2023-11-21T04:23:29;100059.38;;;9.64;100.00
7050;BME280;22263;52.260;10.548;2023-11-21T04:25:59;100052.41;;;9.81;100.00
7050;BME280;22263;52.260;10.548;2023-11-21T04:28:29;100059.09;;;9.76;100.00
7050;BME280;22263;52.260;10.548;2023-11-21T04:30:59;100069.06;;;9.91;100.00
7050;BME280;22263;52.260;10.548;2023-11-21T04:33:29;100059.63;;;9.96;100.00
7050;BME280;22263;52.260;10.548;2023-11-21T04:35:58;100060.81;;;9.95;100.00
7050;BME280;22263;52.260;10.548;2023-11-21T04:38:32;100068.22;;;9.84;100.00
7050;BME280;22263;52.260;10.548;2023-11-21T04:41:02;100074.09;;;9.79;100.00
7050;BME280;22263;52.260;10.548;2023-11-21T04:43:33;100070.16;;;9.80;100.00
7050;BME280;22263;52.260;10.548;2023-11-21T04:46:03;100075.41;;;9.99;100.00
7050;BME280;22263;52.260;10.548;2023-11-21T04:48:33;100080.16;;;9.98;100.00
7050;BME280;22263;52.260;10.548;2023-11-21T04:51:03;100078.97;;;9.96;100.00
7050;BME280;22263;52.260;10.548;2023-11-21T04:53:36;100088.06;;;10.00;100.00
7050;BME280;22263;52.260;10.548;2023-11-21T04:56:07;100097.16;;;10.00;100.00
7050;BME280;22263;52.260;10.548;2023-11-21T04:58:37;100098.28;;;9.92;100.00
7050;BME280;22263;52.260;10.548;2023-11-21T05:01:07;100102.59;;;9.93;100.00
7050;BME280;22263;52.260;10.548;2023-11-21T05:03:38;100105.88;;;10.10;100.00
7050;BME280;22263;52.260;10.548;2023-11-21T05:06:09;100109.44;;;10.10;100.00
7050;BME280;22263;52.260;10.548;2023-11-21T05:08:41;100111.03;;;10.11;100.00
7050;BME280;22263;52.260;10.548;2023-11-21T05:11:11;100111.34;;;10.02;100.00
7050;BME280;22263;52.260;10.548;2023-11-21T05:13:41;100110.25;;;10.11;100.00
7050;BME280;22263;52.260;10.548;2023-11-21T05:16:11;100112.94;;;10.03;100.00
7050;BME280;22263;52.260;10.548;2023-11-21T05:18:41;100115.00;;;10.14;100.00
7050;BME280;22263;52.260;10.548;2023-11-21T05:21:11;100120.84;;;10.05;100.00
7050;BME280;22263;52.260;10.548;2023-11-21T05:23:44;100126.84;;;10.14;100.00
7050;BME280;22263;52.260;10.548;2023-11-21T05:26:14;100129.25;;;10.16;100.00
7050;BME280;22263;52.260;10.548;2023-11-21T05:28:43;100135.50;;;10.13;100.00
7050;BME280;22263;52.260;10.548;2023-11-21T05:31:13;100142.63;;;10.14;100.00
7050;BME280;22263;52.260;10.548;2023-11-21T05:33:43;100133.97;;;10.15;100.00
7050;BME280;22263;52.260;10.548;2023-11-21T05:36:13;100140.31;;;10.16;100.00
7050;BME280;22263;52.260;10.548;2023-11-21T05:38:45;100142.59;;;10.06;100.00
7050;BME280;22263;52.260;10.548;2023-11-21T05:41:13;100141.03;;;9.65;100.00
7050;BME280;22263;52.260;10.548;2023-11-21T05:43:42;100143.44;;;9.70;100.00
7050;BME280;22263;52.260;10.548;2023-11-21T05:46:12;100151.28;;;9.64;100.00
7050;BME280;22263;52.260;10.548;2023-11-21T05:48:43;100152.47;;;9.63;100.00
7050;BME280;22263;52.260;10.548;2023-11-21T05:51:13;100158.88;;;9.75;100.00
7050;BME280;22263;52.260;10.548;2023-11-21T05:53:47;100155.44;;;9.88;100.00
7050;BME280;22263;52.260;10.548;2023-11-21T05:56:17;100154.22;;;9.82;100.00
7050;BME280;22263;52.260;10.548;2023-11-21T05:58:46;100164.84;;;9.80;100.00
7050;BME280;22263;52.260;10.548;2023-11-21T06:01:17;100161.25;;;9.76;100.00
7050;BME280;22263;52.260;10.548;2023-11-21T06:03:47;100168.91;;;9.49;100.00
7050;BME280;22263;52.260;10.548;2023-11-21T06:06:16;100165.84;;;9.58;100.00
7050;BME280;22263;52.260;10.548;2023-11-21T06:08:48;100179.44;;;9.40;100.00
7050;BME280;22263;52.260;10.548;2023-11-21T06:11:18;100179.88;;;9.42;100.00
7050;BME280;22263;52.260;10.548;2023-11-21T06:13:48;100192.97;;;9.15;100.00
7050;BME280;22263;52.260;10.548;2023-11-21T06:16:20;100192.56;;;9.50;100.00
7050;BME280;22263;52.260;10.548;2023-11-21T06:18:50;100195.09;;;9.66;100.00
7050;BME280;22263;52.260;10.548;2023-11-21T06:21:19;100200.72;;;9.77;100.00
7050;BME280;22263;52.260;10.548;2023-11-21T06:23:52;100210.53;;;9.74;100.00
7050;BME280;22263;52.260;10.548;2023-11-21T06:26:23;100202.66;;;9.73;100.00
7050;BME280;22263;52.260;10.548;2023-11-21T06:28:53;100215.53;;;9.58;100.00
7050;BME280;22263;52.260;10.548;2023-11-21T06:31:23;100212.75;;;9.58;100.00
7050;BME280;22263;52.260;10.548;2023-11-21T06:33:54;100215.78;;;9.46;100.00
7050;BME280;22263;52.260;10.548;2023-11-21T06:36:25;100216.69;;;9.57;100.00
7050;BME280;22263;52.260;10.548;2023-11-21T06:38:57;100232.31;;;9.46;100.00
7050;BME280;22263;52.260;10.548;2023-11-21T06:41:27;100230.38;;;9.46;100.00
7050;BME280;22263;52.260;10.548;2023-11-21T06:43:56;100232.63;;;9.37;100.00
7050;BME280;22263;52.260;10.548;2023-11-21T06:46:26;100234.19;;;9.35;100.00
7050;BME280;22263;52.260;10.548;2023-11-21T06:48:56;100242.88;;;9.37;100.00
7050;BME280;22263;52.260;10.548;2023-11-21T06:51:26;100248.31;;;9.30;100.00
7050;BME280;22263;52.260;10.548;2023-11-21T06:53:58;100262.19;;;9.37;100.00
7050;BME280;22263;52.260;10.548;2023-11-21T06:56:28;100267.13;;;9.21;100.00
7050;BME280;22263;52.260;10.548;2023-11-21T06:58:58;100277.81;;;9.26;100.00
7050;BME280;22263;52.260;10.548;2023-11-21T07:01:28;100270.53;;;9.10;100.00
7050;BME280;22263;52.260;10.548;2023-11-21T07:04:00;100287.94;;;9.14;100.00
7050;BME280;22263;52.260;10.548;2023-11-21T07:06:29;100282.19;;;8.97;100.00
7050;BME280;22263;52.260;10.548;2023-11-21T07:09:02;100294.41;;;8.99;100.00
7050;BME280;22263;52.260;10.548;2023-11-21T07:11:32;100293.91;;;8.90;100.00
7050;BME280;22263;52.260;10.548;2023-11-21T07:14:02;100295.97;;;8.97;100.00
7050;BME280;22263;52.260;10.548;2023-11-21T07:16:34;100304.28;;;8.74;100.00
7050;BME280;22263;52.260;10.548;2023-11-21T07:19:05;100301.13;;;8.72;100.00
7050;BME280;22263;52.260;10.548;2023-11-21T07:21:35;100302.28;;;8.71;100.00
7050;BME280;22263;52.260;10.548;2023-11-21T07:24:09;100299.50;;;8.71;100.00
7050;BME280;22263;52.260;10.548;2023-11-21T07:26:39;100303.97;;;8.79;100.00
7050;BME280;22263;52.260;10.548;2023-11-21T07:29:08;100317.03;;;8.82;100.00
7050;BME280;22263;52.260;10.548;2023-11-21T07:31:38;100309.44;;;8.75;100.00
7050;BME280;22263;52.260;10.548;2023-11-21T07:34:08;100325.63;;;8.77;100.00
7050;BME280;22263;52.260;10.548;2023-11-21T07:36:39;100320.19;;;8.84;100.00
7050;BME280;22263;52.260;10.548;2023-11-21T07:39:11;100332.38;;;8.83;100.00
7050;BME280;22263;52.260;10.548;2023-11-21T07:41:43;100337.97;;;8.64;100.00
7050;BME280;22263;52.260;10.548;2023-11-21T07:44:16;100342.16;;;8.77;100.00
7050;BME280;22263;52.260;10.548;2023-11-21T07:46:48;100347.66;;;8.77;100.00
7050;BME280;22263;52.260;10.548;2023-11-21T07:49:19;100351.59;;;8.53;100.00
7050;BME280;22263;52.260;10.548;2023-11-21T07:51:50;100359.38;;;8.70;100.00
7050;BME280;22263;52.260;10.548;2023-11-21T07:54:22;100363.50;;;8.84;100.00
7050;BME280;22263;52.260;10.548;2023-11-21T07:56:52;100366.53;;;8.75;100.00
7050;BME280;22263;52.260;10.548;2023-11-21T07:59:22;100375.31;;;8.58;100.00
7050;BME280;22263;52.260;10.548;2023-11-21T08:01:51;100372.41;;;8.73;100.00
7050;BME280;22263;52.260;10.548;2023-11-21T08:04:22;100368.25;;;8.60;100.00
7050;BME280;22263;52.260;10.548;2023-11-21T08:06:51;100375.72;;;8.60;100.00
7050;BME280;22263;52.260;10.548;2023-11-21T08:09:24;100392.00;;;8.46;100.00
7050;BME280;22263;52.260;10.548;2023-11-21T08:11:54;100387.66;;;8.25;100.00
7050;BME280;22263;52.260;10.548;2023-11-21T08:14:23;100397.81;;;8.41;100.00
7050;BME280;22263;52.260;10.548;2023-11-21T08:16:53;100395.38;;;8.36;100.00
7050;BME280;22263;52.260;10.548;2023-11-21T08:19:25;100403.47;;;8.48;100.00
7050;BME280;22263;52.260;10.548;2023-11-21T08:21:54;100405.00;;;8.45;100.00
7050;BME280;22263;52.260;10.548;2023-11-21T08:24:28;100400.47;;;8.34;100.00
7050;BME280;22263;52.260;10.548;2023-11-21T08:26:58;100409.59;;;8.60;100.00
7050;BME280;22263;52.260;10.548;2023-11-21T08:29:28;100413.34;;;8.49;100.00
7050;BME280;22263;52.260;10.548;2023-11-21T08:31:58;100406.19;;;8.67;100.00
7050;BME280;22263;52.260;10.548;2023-11-21T08:34:28;100417.91;;;8.64;100.00
7050;BME280;22263;52.260;10.548;2023-11-21T08:36:58;100413.94;;;8.61;100.00
7050;BME280;22263;52.260;10.548;2023-11-21T08:39:30;100424.91;;;8.58;100.00
7050;BME280;22263;52.260;10.548;2023-11-21T08:42:00;100421.13;;;8.66;100.00
7050;BME280;22263;52.260;10.548;2023-11-21T08:44:30;100427.00;;;8.64;100.00
7050;BME280;22263;52.260;10.548;2023-11-21T08:46:59;100420.50;;;8.76;100.00
7050;BME280;22263;52.260;10.548;2023-11-21T08:49:34;100427.38;;;8.63;100.00
7050;BME280;22263;52.260;10.548;2023-11-21T08:52:05;100430.03;;;8.59;100.00
7050;BME280;22263;52.260;10.548;2023-11-21T08:54:37;100432.25;;;8.73;100.00
7050;BME280;22263;52.260;10.548;2023-11-21T08:57:08;100439.00;;;8.75;100.00
7050;BME280;22263;52.260;10.548;2023-11-21T08:59:37;100440.22;;;8.78;100.00
7050;BME280;22263;52.260;10.548;2023-11-21T09:02:07;100436.59;;;8.74;100.00
7050;BME280;22263;52.260;10.548;2023-11-21T09:04:38;100446.78;;;8.70;100.00
7050;BME280;22263;52.260;10.548;2023-11-21T09:07:09;100443.47;;;8.84;100.00
7050;BME280;22263;52.260;10.548;2023-11-21T09:09:42;100445.44;;;8.83;100.00
7050;BME280;22263;52.260;10.548;2023-11-21T09:12:12;100454.25;;;8.92;100.00
7050;BME280;22263;52.260;10.548;2023-11-21T09:14:43;100453.94;;;8.97;100.00
7050;BME280;22263;52.260;10.548;2023-11-21T09:17:13;100453.16;;;8.74;100.00
7050;BME280;22263;52.260;10.548;2023-11-21T09:19:43;100454.16;;;8.85;100.00
7050;BME280;22263;52.260;10.548;2023-11-21T09:22:17;100458.06;;;8.84;100.00
7050;BME280;22263;52.260;10.548;2023-11-21T09:24:49;100455.56;;;8.75;100.00
7050;BME280;22263;52.260;10.548;2023-11-21T09:27:20;100465.13;;;8.82;100.00
7050;BME280;22263;52.260;10.548;2023-11-21T09:29:49;100464.88;;;8.90;100.00
7050;BME280;22263;52.260;10.548;2023-11-21T09:32:20;100466.03;;;8.89;100.00
7050;BME280;22263;52.260;10.548;2023-11-21T09:34:50;100468.78;;;8.89;100.00
7050;BME280;22263;52.260;10.548;2023-11-21T09:37:22;100473.50;;;8.89;100.00
7050;BME280;22263;52.260;10.548;2023-11-21T09:39:56;100474.75;;;8.91;100.00
7050;BME280;22263;52.260;10.548;2023-11-21T09:42:30;100482.72;;;8.96;100.00
7050;BME280;22263;52.260;10.548;2023-11-21T09:45:06;100479.69;;;9.05;100.00
7050;BME280;22263;52.260;10.548;2023-11-21T09:47:40;100488.56;;;9.17;100.00
7050;BME280;22263;52.260;10.548;2023-11-21T09:50:11;100490.28;;;9.26;100.00
7050;BME280;22263;52.260;10.548;2023-11-21T09:52:46;100499.13;;;9.35;100.00
7050;BME280;22263;52.260;10.548;2023-11-21T09:55:21;100493.16;;;9.33;100.00
7050;BME280;22263;52.260;10.548;2023-11-21T09:57:52;100497.53;;;9.34;100.00
7050;BME280;22263;52.260;10.548;2023-11-21T10:00:23;100498.22;;;9.53;100.00
7050;BME280;22263;52.260;10.548;2023-11-21T10:02:55;100502.16;;;9.52;100.00
7050;BME280;22263;52.260;10.548;2023-11-21T10:05:30;100506.28;;;9.39;100.00
7050;BME280;22263;52.260;10.548;2023-11-21T10:08:02;100513.19;;;9.79;100.00
7050;BME280;22263;52.260;10.548;2023-11-21T10:10:36;100514.06;;;9.83;100.00
7050;BME280;22263;52.260;10.548;2023-11-21T10:13:11;100522.09;;;9.95;100.00
7050;BME280;22263;52.260;10.548;2023-11-21T10:15:48;100528.25;;;9.85;100.00
7050;BME280;22263;52.260;10.548;2023-11-21T10:18:20;100527.59;;;9.91;100.00
7050;BME280;22263;52.260;10.548;2023-11-21T10:20:52;100533.91;;;9.92;100.00
7050;BME280;22263;52.260;10.548;2023-11-21T10:23:27;100536.03;;;9.76;100.00
7050;BME280;22263;52.260;10.548;2023-11-21T10:26:00;100533.56;;;9.71;100.00
7050;BME280;22263;52.260;10.548;2023-11-21T10:28:41;100532.16;;;9.80;100.00
7050;BME280;22263;52.260;10.548;2023-11-21T10:31:11;100545.47;;;9.75;100.00
7050;BME280;22263;52.260;10.548;2023-11-21T10:33:40;100546.47;;;9.89;100.00
7050;BME280;22263;52.260;10.548;2023-11-21T10:36:10;100553.75;;;9.75;100.00
7050;BME280;22263;52.260;10.548;2023-11-21T10:38:42;100555.72;;;9.74;100.00
7050;BME280;22263;52.260;10.548;2023-11-21T10:41:19;100554.16;;;9.73;100.00
7050;BME280;22263;52.260;10.548;2023-11-21T10:43:53;100555.94;;;9.62;100.00
7050;BME280;22263;52.260;10.548;2023-11-21T10:46:23;100558.47;;;9.74;100.00
7050;BME280;22263;52.260;10.548;2023-11-21T10:48:53;100558.69;;;9.88;100.00
7050;BME280;22263;52.260;10.548;2023-11-21T10:51:25;100558.84;;;9.99;100.00
7050;BME280;22263;52.260;10.548;2023-11-21T10:53:55;100564.53;;;9.83;100.00
7050;BME280;22263;52.260;10.548;2023-11-21T10:56:29;100571.72;;;9.88;100.00
7050;BME280;22263;52.260;10.548;2023-11-21T10:59:02;100570.50;;;9.85;100.00
7050;BME280;22263;52.260;10.548;2023-11-21T11:01:33;100575.22;;;9.85;100.00
7050;BME280;22263;52.260;10.548;2023-11-21T11:04:06;100576.66;;;10.01;100.00
7050;BME280;22263;52.260;10.548;2023-11-21T11:06:42;100586.00;;;9.93;100.00
7050;BME280;22263;52.260;10.548;2023-11-21T11:09:13;100586.47;;;9.99;100.00
7050;BME280;22263;52.260;10.548;2023-11-21T11:11:46;100589.19;;;9.95;100.00
7050;BME280;22263;52.260;10.548;2023-11-21T11:14:16;100590.53;;;10.05;100.00
7050;BME280;22263;52.260;10.548;2023-11-21T11:16:47;100592.66;;;10.15;100.00
7050;BME280;22263;52.260;10.548;2023-11-21T11:19:18;100595.72;;;10.10;100.00
7050;BME280;22263;52.260;10.548;2023-11-21T11:21:53;100590.38;;;9.94;100.00
7050;BME280;22263;52.260;10.548;2023-11-21T11:24:59;100590.75;;;10.19;100.00
7050;BME280;22263;52.260;10.548;2023-11-21T11:27:44;100599.06;;;10.19;100.00
7050;BME280;22263;52.260;10.548;2023-11-21T11:30:24;100601.84;;;10.23;100.00
7050;BME280;22263;52.260;10.548;2023-11-21T11:33:05;100602.63;;;10.20;100.00
7050;BME280;22263;52.260;10.548;2023-11-21T11:35:47;100595.25;;;10.04;100.00
7050;BME280;22263;52.260;10.548;2023-11-21T11:38:21;100609.38;;;9.99;100.00
7050;BME280;22263;52.260;10.548;2023-11-21T11:40:53;100609.97;;;10.12;100.00
7050;BME280;22263;52.260;10.548;2023-11-21T11:43:27;100619.38;;;10.07;100.00
7050;BME280;22263;52.260;10.548;2023-11-21T11:46:03;100618.44;;;9.96;100.00
7050;BME280;22263;52.260;10.548;2023-11-21T11:48:35;100620.97;;;10.08;100.00
7050;BME280;22263;52.260;10.548;2023-11-21T11:51:10;100613.09;;;9.84;100.00
7050;BME280;22263;52.260;10.548;2023-11-21T11:53:42;100627.88;;;9.95;100.00
7050;BME280;22263;52.260;10.548;2023-11-21T11:56:23;100627.19;;;10.02;100.00
7050;BME280;22263;52.260;10.548;2023-11-21T11:58:58;100628.25;;;10.17;100.00
7050;BME280;22263;52.260;10.548;2023-11-21T12:01:32;100633.00;;;10.20;100.00
7050;BME280;22263;52.260;10.548;2023-11-21T12:04:23;100630.38;;;10.04;100.00
7050;BME280;22263;52.260;10.548;2023-11-21T12:07:01;100635.34;;;9.69;100.00
7050;BME280;22263;52.260;10.548;2023-11-21T12:09:34;100629.03;;;9.94;100.00
7050;BME280;22263;52.260;10.548;2023-11-21T12:12:08;100628.34;;;10.01;100.00
7050;BME280;22263;52.260;10.548;2023-11-21T12:14:40;100630.72;;;10.02;100.00
7050;BME280;22263;52.260;10.548;2023-11-21T12:17:12;100639.47;;;10.04;100.00
7050;BME280;22263;52.260;10.548;2023-11-21T12:19:42;100641.78;;;10.02;100.00
7050;BME280;22263;52.260;10.548;2023-11-21T12:22:13;100648.19;;;10.06;100.00
7050;BME280;22263;52.260;10.548;2023-11-21T12:24:45;100651.81;;;10.11;100.00
7050;BME280;22263;52.260;10.548;2023-11-21T12:27:15;100646.06;;;9.96;100.00
7050;BME280;22263;52.260;10.548;2023-11-21T12:29:47;100654.13;;;10.08;100.00
7050;BME280;22263;52.260;10.548;2023-11-21T12:32:18;100659.06;;;10.19;100.00
7050;BME280;22263;52.260;10.548;2023-11-21T12:34:48;100672.22;;;10.29;100.00
7050;BME280;22263;52.260;10.548;2023-11-21T12:37:17;100667.47;;;10.26;100.00
7050;BME280;22263;52.260;10.548;2023-11-21T12:39:47;100686.06;;;10.06;100.00
7050;BME280;22263;52.260;10.548;2023-11-21T12:42:17;100676.16;;;10.28;100.00
7050;BME280;22263;52.260;10.548;2023-11-21T12:45:06;100680.22;;;9.88;100.00
7050;BME280;22263;52.260;10.548;2023-11-21T12:47:41;100686.00;;;10.02;100.00
7050;BME280;22263;52.260;10.548;2023-11-21T12:50:11;100683.03;;;10.15;100.00
7050;BME280;22263;52.260;10.548;2023-11-21T12:52:42;100691.09;;;10.00;100.00
7050;BME280;22263;52.260;10.548;2023-11-21T12:55:16;100700.91;;;9.98;100.00
7050;BME280;22263;52.260;10.548;2023-11-21T12:57:49;100700.38;;;9.89;100.00
7050;BME280;22263;52.260;10.548;2023-11-21T13:00:32;100696.81;;;9.66;100.00
7050;BME280;22263;52.260;10.548;2023-11-21T13:03:05;100700.91;;;9.75;100.00
7050;BME280;22263;52.260;10.548;2023-11-21T13:05:37;100692.69;;;9.79;100.00
7050;BME280;22263;52.260;10.548;2023-11-21T13:08:14;100702.53;;;9.76;100.00
7050;BME280;22263;52.260;10.548;2023-11-21T13:10:50;100695.91;;;9.81;100.00
7050;BME280;22263;52.260;10.548;2023-11-21T13:13:23;100706.19;;;9.84;100.00